Russell, New York
Current Conditions -  °F | °C
As of 12:53 AM on Friday 19 Dec 2014 (Local Time) from KMSS Reporting Station
Overcast Overcast  
Wind Chill: 16°   Ceiling: 1600
Heat Index: 26°   Visibility: 10mi
Dew Point: 20°   Wind: 10mph
Humidity: 78%   Direction: 290°WNW
Pressure: 30.01"   Gusts: NA
Location:  44.43°N, 75.15°W
Report Text: KMSS 190553Z AUTO 29009KT 10SM OVC016 M03/M07 A3001 RMK AO2 SLP168 T10331067 11028 21033 50002
Loading
Personal Weather Stations






























Interactive Weather Map New forecast layout! Learn more

10-Day Weather Forecast

Advertisements
Track Severe Weather on mobile